createdAt,value
2023-05-14T00:00:06.661Z,49.35
2023-05-14T00:02:33.479Z,49.31
2023-05-14T00:05:00.280Z,49.38
2023-05-14T00:07:30.904Z,49.35
2023-05-14T00:09:58.650Z,49.80
2023-05-14T00:12:26.491Z,49.84
2023-05-14T00:14:53.856Z,49.89
2023-05-14T00:17:20.761Z,49.93
2023-05-14T00:19:49.351Z,50.20
2023-05-14T00:25:07.065Z,50.26
2023-05-14T00:27:34.510Z,50.12
2023-05-14T00:30:01.213Z,50.44
2023-05-14T00:32:27.969Z,50.37
2023-05-14T00:34:54.717Z,50.68
2023-05-14T00:37:21.445Z,50.84
2023-05-14T00:39:48.191Z,50.75
2023-05-14T00:42:14.970Z,51.06
2023-05-14T00:44:41.649Z,50.93
2023-05-14T00:47:08.775Z,50.77
2023-05-14T00:49:36.068Z,51.32
2023-05-14T00:52:03.701Z,51.12
2023-05-14T00:54:30.778Z,51.47
2023-05-14T00:56:57.853Z,51.32
2023-05-14T00:59:24.603Z,51.70
2023-05-14T01:01:51.352Z,51.30
2023-05-14T01:04:18.558Z,51.82
2023-05-14T01:07:06.961Z,52.64
2023-05-14T01:09:58.259Z,51.77
2023-05-14T01:12:39.644Z,52.13
2023-05-14T01:15:11.605Z,52.30
2023-05-14T01:17:45.959Z,52.30
2023-05-14T01:20:12.911Z,52.28
2023-05-14T01:22:40.095Z,51.82
2023-05-14T01:25:08.667Z,52.02
2023-05-14T01:28:03.022Z,52.68
2023-05-14T01:30:31.535Z,52.27
2023-05-14T01:33:00.716Z,51.92
2023-05-14T01:35:29.416Z,52.70
2023-05-14T01:38:03.057Z,52.33
2023-05-14T01:40:31.920Z,52.27
2023-05-14T01:42:59.721Z,52.64
2023-05-14T01:45:26.609Z,52.61
2023-05-14T01:47:54.434Z,53.37
2023-05-14T01:50:21.524Z,54.03
2023-05-14T01:52:48.518Z,54.45
2023-05-14T01:55:16.284Z,54.15
2023-05-14T01:57:43.030Z,54.69
2023-05-14T02:00:10.977Z,54.92
2023-05-14T02:02:37.718Z,54.96
2023-05-14T02:05:07.037Z,54.99
2023-05-14T02:07:33.966Z,55.09
2023-05-14T02:10:01.055Z,55.54
2023-05-14T02:12:27.960Z,55.65
2023-05-14T02:14:54.732Z,55.42
2023-05-14T02:17:21.445Z,55.30
2023-05-14T02:19:50.711Z,55.66
2023-05-14T02:22:17.479Z,55.42
2023-05-14T02:24:44.170Z,56.07
2023-05-14T02:27:12.920Z,56.00
2023-05-14T02:29:39.672Z,56.04
2023-05-14T02:32:07.079Z,55.82
2023-05-14T02:34:48.746Z,57.09
2023-05-14T02:37:24.622Z,56.96
2023-05-14T02:39:51.307Z,56.13
2023-05-14T02:42:20.065Z,56.27
2023-05-14T02:44:51.266Z,56.29
2023-05-14T02:47:18.695Z,56.60
2023-05-14T02:49:45.464Z,56.90
2023-05-14T02:52:12.162Z,56.96
2023-05-14T02:54:38.874Z,56.95
2023-05-14T02:57:06.336Z,56.88
2023-05-14T02:59:33.240Z,57.42
2023-05-14T03:02:00.611Z,57.19
2023-05-14T03:04:27.938Z,57.45
2023-05-14T03:06:54.690Z,57.01
2023-05-14T03:09:21.432Z,57.62
2023-05-14T03:11:48.325Z,57.68
2023-05-14T03:14:15.083Z,57.32
2023-05-14T03:16:42.483Z,57.95
2023-05-14T03:19:10.013Z,57.13
2023-05-14T03:21:37.025Z,57.14
2023-05-14T03:24:04.188Z,57.20
2023-05-14T03:26:30.922Z,57.54
2023-05-14T03:28:57.614Z,57.73
2023-05-14T03:31:24.962Z,57.82
2023-05-14T03:33:51.905Z,57.63
2023-05-14T03:36:19.055Z,57.58
2023-05-14T03:38:45.785Z,57.60
2023-05-14T03:41:12.477Z,57.92
2023-05-14T03:43:39.308Z,57.76
2023-05-14T03:46:06.075Z,57.75
2023-05-14T03:48:32.806Z,58.03
2023-05-14T03:50:59.786Z,57.40
2023-05-14T03:53:26.629Z,57.68
2023-05-14T03:55:53.337Z,57.40
2023-05-14T03:58:20.070Z,57.07
2023-05-14T04:00:47.069Z,57.50
2023-05-14T04:03:13.908Z,57.52
2023-05-14T04:05:41.182Z,57.04
2023-05-14T04:08:08.077Z,57.12
2023-05-14T04:10:35.856Z,57.25
2023-05-14T04:13:02.808Z,57.43
2023-05-14T04:15:29.586Z,57.32
2023-05-14T04:17:56.383Z,57.44
2023-05-14T04:20:23.225Z,57.69
2023-05-14T04:22:50.113Z,57.68
2023-05-14T04:25:18.582Z,57.51
2023-05-14T04:27:45.569Z,56.70
2023-05-14T04:30:12.635Z,57.23
2023-05-14T04:32:39.407Z,56.94
2023-05-14T04:35:06.933Z,57.02
2023-05-14T04:37:33.656Z,56.81
2023-05-14T04:40:01.050Z,56.93
2023-05-14T04:42:27.850Z,56.80
2023-05-14T04:44:54.550Z,57.13
2023-05-14T04:47:21.286Z,56.92
2023-05-14T04:49:48.348Z,56.87
2023-05-14T04:52:15.079Z,56.49
2023-05-14T04:54:41.873Z,56.66
2023-05-14T04:57:08.715Z,56.40
2023-05-14T04:59:35.576Z,56.46
2023-05-14T05:02:02.506Z,56.01
2023-05-14T05:04:29.331Z,55.81
2023-05-14T05:06:56.068Z,55.84
2023-05-14T05:09:22.816Z,55.66
2023-05-14T05:11:49.449Z,55.18
2023-05-14T05:14:23.542Z,55.17
2023-05-14T05:16:51.505Z,54.64
2023-05-14T05:19:22.375Z,54.47
2023-05-14T05:21:53.485Z,54.39
2023-05-14T05:24:20.190Z,53.85
2023-05-14T05:26:47.155Z,53.22
2023-05-14T05:29:13.862Z,53.01
2023-05-14T05:31:40.857Z,52.32
2023-05-14T05:34:07.595Z,52.63
2023-05-14T05:36:34.366Z,52.32
2023-05-14T05:39:01.112Z,52.15
2023-05-14T05:41:27.907Z,51.59
2023-05-14T05:43:54.649Z,51.12
2023-05-14T05:46:21.991Z,50.96
2023-05-14T05:48:48.709Z,50.67
2023-05-14T05:51:15.470Z,50.02
2023-05-14T05:53:44.551Z,49.96
2023-05-14T05:56:11.262Z,49.81
2023-05-14T05:58:38.812Z,50.08
2023-05-14T06:01:05.777Z,49.90
2023-05-14T06:03:34.948Z,50.62
2023-05-14T06:06:01.654Z,49.06
2023-05-14T06:08:29.424Z,46.30
2023-05-14T06:10:56.162Z,44.04
2023-05-14T06:13:22.841Z,38.97
2023-05-14T06:15:49.594Z,39.52
2023-05-14T06:18:16.297Z,37.15
2023-05-14T06:20:45.330Z,34.98
2023-05-14T06:23:12.446Z,31.25
2023-05-14T06:25:39.543Z,30.33
2023-05-14T06:28:06.533Z,28.19
2023-05-14T06:30:34.446Z,27.43
2023-05-14T06:33:01.596Z,26.72
2023-05-14T06:35:28.460Z,25.54
2023-05-14T06:37:57.241Z,24.92
2023-05-14T06:40:24.117Z,24.13
2023-05-14T06:42:51.044Z,22.62
2023-05-14T06:45:17.957Z,22.41
2023-05-14T06:47:45.881Z,22.17
2023-05-14T06:50:13.010Z,22.72
2023-05-14T06:52:41.859Z,22.88
2023-05-14T06:55:08.920Z,22.62
2023-05-14T06:57:35.754Z,22.91
2023-05-14T07:00:03.773Z,23.10
2023-05-14T07:02:30.941Z,22.91
2023-05-14T07:04:57.759Z,21.82
2023-05-14T07:07:24.554Z,20.93
2023-05-14T07:09:51.814Z,20.32
2023-05-14T07:12:18.490Z,19.53
2023-05-14T07:14:45.296Z,19.29
2023-05-14T07:17:13.185Z,19.15
2023-05-14T07:19:41.073Z,18.65
2023-05-14T07:22:07.758Z,18.09
2023-05-14T07:24:34.449Z,17.98
2023-05-14T07:27:02.062Z,17.54
2023-05-14T07:29:30.653Z,17.47
2023-05-14T07:31:57.333Z,17.65
2023-05-14T07:34:24.022Z,16.85
2023-05-14T07:36:51.203Z,16.58
2023-05-14T07:39:18.326Z,16.00
2023-05-14T07:41:45.060Z,15.93
2023-05-14T07:44:11.845Z,15.85
2023-05-14T07:46:38.579Z,15.31
2023-05-14T07:49:05.735Z,14.82
2023-05-14T07:51:33.623Z,14.54
2023-05-14T07:54:01.447Z,14.22
2023-05-14T07:56:28.606Z,13.79
2023-05-14T07:58:56.672Z,13.34
2023-05-14T08:01:25.287Z,13.40
2023-05-14T08:03:52.154Z,13.06
2023-05-14T08:06:21.117Z,12.72
2023-05-14T08:08:47.889Z,12.98
2023-05-14T08:11:15.836Z,12.66
2023-05-14T08:13:42.657Z,12.24
2023-05-14T08:16:09.414Z,12.08
2023-05-14T08:18:37.252Z,12.25
2023-05-14T08:21:04.142Z,12.21
2023-05-14T08:23:30.905Z,12.02
2023-05-14T08:25:57.565Z,11.57
2023-05-14T08:28:24.297Z,11.34
2023-05-14T08:30:51.703Z,11.60
2023-05-14T08:33:18.467Z,11.09
2023-05-14T08:35:45.137Z,11.24
2023-05-14T08:38:11.828Z,11.52
2023-05-14T08:40:38.535Z,11.36
2023-05-14T08:43:08.094Z,11.02
2023-05-14T08:45:35.753Z,10.75
2023-05-14T08:48:08.906Z,10.56
2023-05-14T08:50:36.400Z,10.54
2023-05-14T08:53:04.275Z,10.68
2023-05-14T08:55:33.712Z,10.99
2023-05-14T08:58:01.337Z,11.02
2023-05-14T09:00:28.196Z,11.34
2023-05-14T09:02:56.005Z,11.46
2023-05-14T09:05:23.690Z,11.82
2023-05-14T09:07:50.427Z,12.37
2023-05-14T09:10:17.628Z,12.95
2023-05-14T09:12:44.645Z,14.01
2023-05-14T09:15:11.378Z,14.67
2023-05-14T09:17:38.190Z,14.94
2023-05-14T09:20:06.037Z,15.45
2023-05-14T09:22:36.975Z,16.45
2023-05-14T09:25:06.532Z,17.46
2023-05-14T09:27:34.249Z,18.58
2023-05-14T09:30:12.628Z,19.38
2023-05-14T09:32:44.256Z,19.60
2023-05-14T09:35:17.320Z,20.04
2023-05-14T09:37:47.434Z,19.63
2023-05-14T09:40:14.760Z,20.28
2023-05-14T09:42:41.907Z,20.72
2023-05-14T09:45:10.130Z,21.10
2023-05-14T09:47:38.189Z,21.47
2023-05-14T09:50:05.985Z,22.12
2023-05-14T09:52:33.155Z,22.62
2023-05-14T09:55:00.979Z,23.29
2023-05-14T09:57:27.815Z,23.45
2023-05-14T09:59:54.527Z,23.22
2023-05-14T10:02:25.560Z,23.66
2023-05-14T10:04:54.721Z,24.77
2023-05-14T10:07:26.481Z,25.07
2023-05-14T10:10:02.114Z,25.31
2023-05-14T10:12:37.485Z,25.06
2023-05-14T10:15:32.721Z,24.99
2023-05-14T10:18:08.126Z,25.84
2023-05-14T10:20:36.108Z,25.94
2023-05-14T10:23:06.013Z,26.13
2023-05-14T10:25:34.346Z,25.90
2023-05-14T10:28:02.673Z,26.31
2023-05-14T10:30:29.497Z,25.94
2023-05-14T10:33:08.286Z,26.40
2023-05-14T10:35:57.885Z,26.99
2023-05-14T10:38:29.547Z,26.44
2023-05-14T10:41:17.923Z,26.63
2023-05-14T10:43:44.854Z,26.83
2023-05-14T10:46:13.450Z,26.67
2023-05-14T10:48:43.777Z,27.10
2023-05-14T10:51:11.500Z,27.19
2023-05-14T10:53:41.231Z,26.91
2023-05-14T10:56:11.599Z,27.09
2023-05-14T10:58:40.304Z,26.13
2023-05-14T11:01:13.400Z,25.72
2023-05-14T11:03:45.552Z,25.32
2023-05-14T11:06:16.108Z,25.35
2023-05-14T11:08:44.112Z,25.37
2023-05-14T11:11:11.115Z,25.55
2023-05-14T11:13:38.566Z,25.98
2023-05-14T11:18:41.957Z,26.00
2023-05-14T11:21:08.992Z,25.92
2023-05-14T11:23:37.553Z,25.69
2023-05-14T11:26:04.609Z,25.11
2023-05-14T11:28:31.501Z,25.40
2023-05-14T11:30:59.308Z,25.81
2023-05-14T11:33:27.984Z,25.20
2023-05-14T11:35:54.764Z,25.52
2023-05-14T11:38:21.905Z,25.28
2023-05-14T11:40:58.191Z,25.21
2023-05-14T11:43:28.517Z,25.18
2023-05-14T11:45:55.965Z,25.18
2023-05-14T11:48:25.185Z,24.80
2023-05-14T11:50:53.208Z,25.02
2023-05-14T11:53:31.307Z,24.59
2023-05-14T11:55:58.346Z,25.16
2023-05-14T11:58:25.495Z,25.36
2023-05-14T12:00:55.879Z,25.36
2023-05-14T12:03:30.361Z,25.66
2023-05-14T12:06:01.321Z,25.48
2023-05-14T12:08:31.964Z,25.46
2023-05-14T12:11:00.522Z,25.27
2023-05-14T12:13:31.472Z,25.34
2023-05-14T12:16:01.019Z,25.45
2023-05-14T12:18:29.920Z,25.56
2023-05-14T12:21:02.210Z,25.59
2023-05-14T12:23:33.190Z,25.98
2023-05-14T12:26:06.201Z,26.02
2023-05-14T12:28:35.314Z,25.87
2023-05-14T12:31:03.800Z,25.67
2023-05-14T12:33:30.677Z,25.95
2023-05-14T12:36:13.960Z,25.84
2023-05-14T12:38:48.104Z,25.94
2023-05-14T12:41:14.800Z,25.69
2023-05-14T12:43:45.372Z,26.26
2023-05-14T12:46:12.421Z,25.86
2023-05-14T12:48:39.214Z,26.35
2023-05-14T12:51:06.685Z,25.83
2023-05-14T12:53:34.901Z,25.59
2023-05-14T12:56:02.093Z,25.42
2023-05-14T12:58:28.889Z,25.63
2023-05-14T13:00:56.501Z,25.73
2023-05-14T13:03:35.641Z,25.84
2023-05-14T13:06:02.299Z,26.07
2023-05-14T13:08:30.411Z,25.83
2023-05-14T13:10:57.212Z,25.96
2023-05-14T13:13:23.935Z,25.96
2023-05-14T13:15:50.966Z,26.36
2023-05-14T13:18:18.020Z,26.40
2023-05-14T13:20:46.334Z,26.71
2023-05-14T13:23:13.544Z,27.06
2023-05-14T13:25:41.578Z,26.92
2023-05-14T13:28:11.317Z,27.02
2023-05-14T13:30:38.466Z,27.30
2023-05-14T13:33:05.774Z,27.50
2023-05-14T13:35:33.159Z,27.66
2023-05-14T13:38:01.196Z,27.67
2023-05-14T13:40:27.930Z,27.74
2023-05-14T13:42:54.663Z,27.76
2023-05-14T13:45:21.835Z,27.83
2023-05-14T13:47:51.846Z,28.08
2023-05-14T13:50:18.666Z,28.13
2023-05-14T13:52:45.622Z,28.09
2023-05-14T13:55:16.281Z,28.21
2023-05-14T13:57:43.811Z,27.98
2023-05-14T14:00:14.234Z,28.01
2023-05-14T14:02:42.779Z,28.99
2023-05-14T14:05:09.933Z,28.79
2023-05-14T14:07:39.509Z,29.19
2023-05-14T14:10:07.092Z,29.61
2023-05-14T14:12:34.272Z,29.70
2023-05-14T14:15:03.186Z,29.49
2023-05-14T14:17:29.933Z,29.55
2023-05-14T14:19:56.766Z,29.66
2023-05-14T14:22:26.151Z,29.22
2023-05-14T14:24:55.251Z,29.43
2023-05-14T14:27:22.551Z,29.28
2023-05-14T14:29:51.288Z,29.31
2023-05-14T14:32:18.042Z,29.38
2023-05-14T14:34:44.910Z,29.58
2023-05-14T14:37:11.644Z,29.43
2023-05-14T14:39:38.313Z,29.50
2023-05-14T14:42:05.832Z,29.75
2023-05-14T14:44:32.544Z,29.73
2023-05-14T14:47:00.628Z,30.00
2023-05-14T14:49:28.687Z,30.08
2023-05-14T14:51:55.731Z,30.38
2023-05-14T14:54:22.433Z,30.42
2023-05-14T14:56:53.253Z,30.88
2023-05-14T14:59:20.007Z,30.51
2023-05-14T15:01:46.829Z,30.69
2023-05-14T15:04:13.781Z,30.91
2023-05-14T15:06:41.627Z,31.24
2023-05-14T15:09:09.258Z,31.32
2023-05-14T15:11:37.421Z,31.71
2023-05-14T15:14:04.501Z,31.48
2023-05-14T15:16:31.246Z,31.60
2023-05-14T15:18:59.648Z,31.59
2023-05-14T15:21:27.527Z,31.29
2023-05-14T15:23:54.167Z,31.74
2023-05-14T15:26:21.828Z,31.99
2023-05-14T15:28:49.505Z,32.30
2023-05-14T15:31:16.566Z,32.21
2023-05-14T15:33:45.529Z,32.57
2023-05-14T15:36:12.805Z,32.13
2023-05-14T15:38:42.948Z,32.25
2023-05-14T15:41:09.915Z,32.26
2023-05-14T15:43:38.800Z,32.49
2023-05-14T15:46:06.122Z,32.15
2023-05-14T15:48:34.212Z,32.67
2023-05-14T15:51:00.907Z,32.49
2023-05-14T15:53:28.108Z,32.94
2023-05-14T15:55:54.993Z,32.77
2023-05-14T15:58:23.997Z,32.60
2023-05-14T16:00:50.729Z,32.56
2023-05-14T16:03:19.146Z,33.05
2023-05-14T16:05:45.978Z,32.89
2023-05-14T16:08:12.720Z,32.62
2023-05-14T16:10:39.466Z,32.55
2023-05-14T16:13:09.325Z,32.42
2023-05-14T16:15:37.251Z,32.52
2023-05-14T16:18:04.203Z,32.92
2023-05-14T16:20:30.935Z,32.60
2023-05-14T16:22:58.364Z,32.91
2023-05-14T16:25:25.140Z,32.68
2023-05-14T16:27:51.861Z,32.73
2023-05-14T16:30:18.756Z,32.71
2023-05-14T16:32:49.534Z,33.15
2023-05-14T16:35:17.024Z,32.76
2023-05-14T16:37:43.851Z,32.97
2023-05-14T16:40:11.958Z,33.17
2023-05-14T16:42:38.964Z,33.15
2023-05-14T16:45:06.443Z,33.22
2023-05-14T16:47:33.237Z,33.43
2023-05-14T16:50:00.188Z,33.71
2023-05-14T16:52:26.875Z,33.43
2023-05-14T16:54:53.640Z,33.49
2023-05-14T16:57:20.348Z,33.76
2023-05-14T16:59:47.141Z,34.06
2023-05-14T17:02:13.825Z,33.99
2023-05-14T17:04:44.617Z,34.03
2023-05-14T17:07:11.820Z,33.97
2023-05-14T17:09:38.707Z,34.39
2023-05-14T17:12:07.182Z,34.63
2023-05-14T17:14:33.979Z,34.66
2023-05-14T17:17:03.228Z,34.81
2023-05-14T17:19:29.955Z,34.48
2023-05-14T17:21:57.117Z,35.00
2023-05-14T17:24:25.041Z,35.02
2023-05-14T17:26:51.999Z,35.59
2023-05-14T17:29:18.710Z,35.25
2023-05-14T17:31:45.710Z,35.62
2023-05-14T17:34:13.365Z,35.35
2023-05-14T17:36:41.868Z,35.32
2023-05-14T17:39:09.207Z,35.19
2023-05-14T17:41:35.938Z,35.84
2023-05-14T17:44:03.366Z,35.75
2023-05-14T17:46:30.622Z,35.66
2023-05-14T17:48:58.466Z,35.93
2023-05-14T17:51:26.183Z,36.58
2023-05-14T17:53:52.988Z,36.17
2023-05-14T17:56:21.111Z,36.22
2023-05-14T17:58:49.333Z,36.89
2023-05-14T18:01:17.830Z,36.79
2023-05-14T18:03:44.877Z,37.22
2023-05-14T18:06:11.677Z,37.46
2023-05-14T18:08:38.422Z,37.32
2023-05-14T18:11:06.245Z,37.48
2023-05-14T18:13:33.221Z,36.90
2023-05-14T18:16:01.825Z,36.84
2023-05-14T18:18:30.920Z,37.10
2023-05-14T18:21:01.302Z,37.61
2023-05-14T18:23:28.127Z,38.18
2023-05-14T18:25:54.829Z,39.17
2023-05-14T18:28:24.416Z,39.79
2023-05-14T18:30:51.359Z,40.32
2023-05-14T18:33:18.273Z,40.86
2023-05-14T18:35:45.041Z,41.59
2023-05-14T18:38:13.851Z,42.43
2023-05-14T18:40:40.860Z,42.40
2023-05-14T18:43:07.690Z,42.80
2023-05-14T18:45:34.939Z,43.13
2023-05-14T18:48:01.759Z,43.74
2023-05-14T18:50:30.222Z,44.55
2023-05-14T18:52:56.936Z,45.14
2023-05-14T18:55:25.827Z,45.79
2023-05-14T18:57:52.891Z,46.11
2023-05-14T19:00:19.988Z,46.49
2023-05-14T19:02:46.762Z,46.63
2023-05-14T19:05:13.570Z,46.73
2023-05-14T19:07:41.175Z,46.94
2023-05-14T19:10:08.649Z,47.50
2023-05-14T19:12:35.429Z,47.70
2023-05-14T19:15:02.222Z,48.01
2023-05-14T19:17:32.822Z,48.52
2023-05-14T19:19:59.726Z,49.14
2023-05-14T19:22:26.396Z,49.31
2023-05-14T19:24:54.197Z,49.84
2023-05-14T19:27:20.951Z,49.99
2023-05-14T19:29:47.703Z,50.17
2023-05-14T19:32:14.553Z,50.28
2023-05-14T19:34:41.938Z,50.65
2023-05-14T19:37:08.978Z,51.13
2023-05-14T19:39:35.812Z,51.90
2023-05-14T19:42:03.406Z,52.52
2023-05-14T19:44:31.768Z,52.96
2023-05-14T19:46:58.886Z,53.74
2023-05-14T19:49:25.658Z,53.87
2023-05-14T19:51:52.427Z,54.50
2023-05-14T19:54:19.100Z,54.96
2023-05-14T19:56:45.847Z,55.37
2023-05-14T19:59:13.954Z,55.37
2023-05-14T20:01:41.549Z,55.71
2023-05-14T20:04:08.869Z,56.01
2023-05-14T20:06:35.674Z,56.13
2023-05-14T20:09:02.563Z,56.29
2023-05-14T20:11:29.397Z,56.43
2023-05-14T20:13:56.160Z,56.81
2023-05-14T20:16:25.202Z,56.89
2023-05-14T20:18:54.072Z,57.39
2023-05-14T20:21:20.807Z,57.35
2023-05-14T20:23:47.606Z,57.82
2023-05-14T20:26:14.395Z,58.04
2023-05-14T20:28:43.464Z,58.11
2023-05-14T20:31:10.204Z,58.77
2023-05-14T20:33:38.982Z,58.60
2023-05-14T20:36:05.778Z,58.49
2023-05-14T20:38:35.013Z,58.33
2023-05-14T20:41:02.253Z,58.34
2023-05-14T20:43:28.982Z,58.18
2023-05-14T20:45:57.571Z,58.12
2023-05-14T20:48:24.762Z,58.19
2023-05-14T20:50:51.517Z,58.74
2023-05-14T20:53:18.332Z,58.67
2023-05-14T20:55:45.179Z,58.83
2023-05-14T20:58:11.903Z,58.90
2023-05-14T21:00:39.415Z,59.16
2023-05-14T21:03:06.370Z,59.18
2023-05-14T21:05:33.537Z,59.43
2023-05-14T21:08:00.469Z,59.41
2023-05-14T21:10:27.469Z,59.70
2023-05-14T21:12:54.375Z,59.85
2023-05-14T21:15:21.581Z,59.95
2023-05-14T21:17:48.602Z,60.05
2023-05-14T21:20:15.696Z,60.42
2023-05-14T21:22:42.503Z,60.59
2023-05-14T21:25:09.910Z,60.53
2023-05-14T21:27:36.866Z,60.66
2023-05-14T21:30:05.398Z,61.05
2023-05-14T21:32:32.209Z,60.80
2023-05-14T21:34:59.039Z,61.21
2023-05-14T21:37:25.844Z,61.16
2023-05-14T21:39:52.522Z,61.41
2023-05-14T21:42:21.259Z,61.52
2023-05-14T21:44:48.052Z,61.85
2023-05-14T21:47:16.189Z,61.86
2023-05-14T21:49:43.333Z,61.78
2023-05-14T21:52:10.136Z,61.87
2023-05-14T21:54:38.272Z,61.62
2023-05-14T21:57:05.192Z,61.97
2023-05-14T21:59:33.408Z,62.35
2023-05-14T22:04:30.690Z,62.28
2023-05-14T22:06:57.430Z,62.53
2023-05-14T22:09:24.170Z,62.70
2023-05-14T22:11:50.931Z,62.90
2023-05-14T22:14:17.699Z,63.08
2023-05-14T22:16:44.508Z,63.21
2023-05-14T22:19:12.472Z,63.19
2023-05-14T22:21:39.512Z,63.03
2023-05-14T22:24:06.517Z,63.19
2023-05-14T22:26:33.484Z,63.31
2023-05-14T22:29:00.184Z,63.32
2023-05-14T22:31:26.939Z,63.47
2023-05-14T22:33:53.815Z,63.36
2023-05-14T22:36:20.602Z,63.52
2023-05-14T22:38:48.781Z,63.64
2023-05-14T22:41:17.682Z,63.45
2023-05-14T22:43:44.563Z,63.70
2023-05-14T22:46:11.347Z,63.64
2023-05-14T22:48:38.104Z,63.30
2023-05-14T22:51:05.819Z,63.01
2023-05-14T22:53:32.569Z,63.47
2023-05-14T22:55:59.311Z,63.19
2023-05-14T22:58:25.985Z,63.54
2023-05-14T23:00:52.729Z,62.82
2023-05-14T23:03:19.408Z,62.95
2023-05-14T23:05:47.744Z,62.65
2023-05-14T23:08:14.422Z,62.58
2023-05-14T23:10:41.116Z,62.47
2023-05-14T23:13:07.826Z,62.62
2023-05-14T23:15:34.757Z,62.73
2023-05-14T23:18:01.723Z,62.83
2023-05-14T23:20:28.455Z,63.07
2023-05-14T23:22:55.230Z,62.81
2023-05-14T23:25:22.067Z,62.59
2023-05-14T23:27:50.160Z,62.66
2023-05-14T23:30:17.096Z,62.57
2023-05-14T23:32:43.888Z,62.74
2023-05-14T23:35:10.717Z,62.74
2023-05-14T23:37:41.800Z,62.71
2023-05-14T23:40:09.721Z,62.59
2023-05-14T23:42:36.868Z,62.88
2023-05-14T23:45:04.127Z,62.71
2023-05-14T23:47:31.171Z,62.82
2023-05-14T23:49:57.951Z,62.79
2023-05-14T23:52:24.671Z,63.22
2023-05-14T23:54:51.347Z,63.17
2023-05-14T23:57:18.168Z,63.33
2023-05-14T23:59:47.471Z,63.47
